createdAt,value
2022-11-30T00:01:11.483Z,40.27
2022-11-30T00:03:39.449Z,38.53
2022-11-30T00:06:09.943Z,40.40
2022-11-30T00:08:38.004Z,41.90
2022-11-30T00:11:09.760Z,44.20
2022-11-30T00:13:37.544Z,43.40
2022-11-30T00:16:05.805Z,37.80
2022-11-30T00:18:33.884Z,41.83
2022-11-30T00:21:02.239Z,51.73
2022-11-30T00:23:34.800Z,41.87
2022-11-30T00:26:03.557Z,39.50
2022-11-30T00:28:32.719Z,40.60
2022-11-30T00:31:00.593Z,37.73
2022-11-30T00:33:28.612Z,42.00
2022-11-30T00:36:02.322Z,39.93
2022-11-30T00:38:30.463Z,35.17
2022-11-30T00:40:59.484Z,35.13
2022-11-30T00:43:27.155Z,30.77
2022-11-30T00:45:55.204Z,31.10
2022-11-30T00:48:22.935Z,29.17
2022-11-30T00:50:51.177Z,30.87
2022-11-30T00:53:19.618Z,27.60
2022-11-30T00:55:47.804Z,34.87
2022-11-30T00:58:17.335Z,35.73
2022-11-30T01:00:45.187Z,27.20
2022-11-30T01:03:13.656Z,36.60
2022-11-30T01:05:41.455Z,32.37
2022-11-30T01:08:10.925Z,36.77
2022-11-30T01:10:40.388Z,33.60
2022-11-30T01:13:08.477Z,33.30
2022-11-30T01:15:39.876Z,35.57
2022-11-30T01:18:07.944Z,35.07
2022-11-30T01:20:35.796Z,43.63
2022-11-30T01:23:03.487Z,47.60
2022-11-30T01:25:31.235Z,39.73
2022-11-30T01:27:58.874Z,37.30
2022-11-30T01:30:26.554Z,38.33
2022-11-30T01:32:56.052Z,42.10
2022-11-30T01:35:23.758Z,40.43
2022-11-30T01:37:51.404Z,41.67
2022-11-30T01:40:19.244Z,39.73
2022-11-30T01:42:48.193Z,42.63
2022-11-30T01:45:16.146Z,40.90
2022-11-30T01:47:48.813Z,44.60
2022-11-30T01:50:22.523Z,50.80
2022-11-30T01:52:54.035Z,42.30
2022-11-30T01:55:25.222Z,51.57
2022-11-30T01:57:57.317Z,44.30
2022-11-30T02:00:25.382Z,45.23
2022-11-30T02:02:58.533Z,42.43
2022-11-30T02:05:27.919Z,47.90
2022-11-30T02:07:56.536Z,46.57
2022-11-30T02:10:27.657Z,46.17
2022-11-30T02:13:22.329Z,44.60
2022-11-30T02:15:59.260Z,42.93
2022-11-30T02:18:33.191Z,42.50
2022-11-30T02:21:10.751Z,44.07
2022-11-30T02:24:14.935Z,41.60
2022-11-30T02:27:03.971Z,40.27
2022-11-30T02:29:35.796Z,45.37
2022-11-30T02:32:09.255Z,39.27
2022-11-30T02:34:39.079Z,47.67
2022-11-30T02:37:09.725Z,47.87
2022-11-30T02:39:37.455Z,41.90
2022-11-30T02:42:05.168Z,47.43
2022-11-30T02:44:34.575Z,43.57
2022-11-30T02:47:15.852Z,46.87
2022-11-30T02:49:49.825Z,43.13
2022-11-30T02:52:20.780Z,42.33
2022-11-30T02:54:48.994Z,43.10
2022-11-30T02:57:16.878Z,37.20
2022-11-30T02:59:46.098Z,43.80
2022-11-30T03:02:14.132Z,45.10
2022-11-30T03:04:41.795Z,49.50
2022-11-30T03:07:09.513Z,38.97
2022-11-30T03:09:37.228Z,40.10
2022-11-30T03:12:05.043Z,43.40
2022-11-30T03:14:32.955Z,43.30
2022-11-30T03:17:02.058Z,47.43
2022-11-30T03:19:29.786Z,42.57
2022-11-30T03:21:57.443Z,40.63
2022-11-30T03:24:25.113Z,35.83
2022-11-30T03:26:53.537Z,39.27
2022-11-30T03:29:21.252Z,49.43
2022-11-30T03:31:48.902Z,45.73
2022-11-30T03:34:18.061Z,44.83
2022-11-30T03:36:45.781Z,38.00
2022-11-30T03:39:13.557Z,42.37
2022-11-30T03:41:41.263Z,35.70
2022-11-30T03:44:08.915Z,37.17
2022-11-30T03:46:37.044Z,38.60
2022-11-30T03:49:05.085Z,36.63
2022-11-30T03:51:34.156Z,35.20
2022-11-30T03:54:01.893Z,37.30
2022-11-30T03:56:29.595Z,37.73
2022-11-30T03:58:57.292Z,34.77
2022-11-30T04:01:25.150Z,43.03
2022-11-30T04:03:53.503Z,38.63
2022-11-30T04:06:22.211Z,37.17
2022-11-30T04:08:51.268Z,39.87
2022-11-30T04:11:18.948Z,39.07
2022-11-30T04:13:46.796Z,42.87
2022-11-30T04:16:14.534Z,42.13
2022-11-30T04:18:42.253Z,48.43
2022-11-30T04:21:10.042Z,50.77
2022-11-30T04:23:39.809Z,46.87
2022-11-30T04:26:13.833Z,42.07
2022-11-30T04:28:41.963Z,47.27
2022-11-30T04:31:10.173Z,37.60
2022-11-30T04:33:38.015Z,38.73
2022-11-30T04:36:07.994Z,40.67
2022-11-30T04:38:37.481Z,34.87
2022-11-30T04:41:09.866Z,40.43
2022-11-30T04:43:37.946Z,39.60
2022-11-30T04:46:06.877Z,37.60
2022-11-30T04:48:34.819Z,42.70
2022-11-30T04:51:03.756Z,37.30
2022-11-30T04:53:31.400Z,45.33
2022-11-30T04:55:59.093Z,41.80
2022-11-30T04:58:28.078Z,37.23
2022-11-30T05:00:56.212Z,34.87
2022-11-30T05:03:23.867Z,40.17
2022-11-30T05:05:51.650Z,38.37
2022-11-30T05:08:19.334Z,40.17
2022-11-30T05:10:52.774Z,36.47
2022-11-30T05:13:21.304Z,37.07
2022-11-30T05:15:50.407Z,30.83
2022-11-30T05:18:18.429Z,31.90
2022-11-30T05:20:49.104Z,32.00
2022-11-30T05:23:17.849Z,32.77
2022-11-30T05:25:46.346Z,26.93
2022-11-30T05:28:14.386Z,32.70
2022-11-30T05:30:43.246Z,29.30
2022-11-30T05:33:12.584Z,28.60
2022-11-30T05:35:40.572Z,27.57
2022-11-30T05:38:08.427Z,27.47
2022-11-30T05:40:36.483Z,26.93
2022-11-30T05:43:06.001Z,28.30
2022-11-30T05:45:33.670Z,27.83
2022-11-30T05:48:01.393Z,29.70
2022-11-30T05:50:30.392Z,30.43
2022-11-30T05:53:00.641Z,25.17
2022-11-30T05:55:29.368Z,26.00
2022-11-30T05:57:57.035Z,24.63
2022-11-30T06:00:24.795Z,25.40
2022-11-30T06:02:57.980Z,30.70
2022-11-30T06:05:25.957Z,29.67
2022-11-30T06:07:55.484Z,27.60
2022-11-30T06:10:25.186Z,32.27
2022-11-30T06:12:52.921Z,24.03
2022-11-30T06:15:20.657Z,29.00
2022-11-30T06:17:48.406Z,27.10
2022-11-30T06:20:16.134Z,28.73
2022-11-30T06:22:46.226Z,30.60
2022-11-30T06:25:15.742Z,29.10
2022-11-30T06:27:43.980Z,23.97
2022-11-30T06:30:13.034Z,35.93
2022-11-30T06:32:40.711Z,24.47
2022-11-30T06:35:09.028Z,29.43
2022-11-30T06:37:36.697Z,32.90
2022-11-30T06:40:07.102Z,30.33
2022-11-30T06:42:37.949Z,28.10
2022-11-30T06:45:07.584Z,28.37
2022-11-30T06:47:35.488Z,28.80
2022-11-30T06:50:03.173Z,22.33
2022-11-30T06:52:31.279Z,26.60
2022-11-30T06:54:59.077Z,30.40
2022-11-30T06:57:28.109Z,27.50
2022-11-30T06:59:57.650Z,27.03
2022-11-30T07:02:25.386Z,20.07
2022-11-30T07:04:53.119Z,24.10
2022-11-30T07:07:21.097Z,19.80
2022-11-30T07:09:48.939Z,22.60
2022-11-30T07:12:16.943Z,20.07
2022-11-30T07:14:44.836Z,22.10
2022-11-30T07:17:14.173Z,22.40
2022-11-30T07:19:41.929Z,21.60
2022-11-30T07:22:09.659Z,26.10
2022-11-30T07:24:51.275Z,25.77
2022-11-30T07:27:19.109Z,26.00
2022-11-30T07:29:48.849Z,29.83
2022-11-30T07:32:18.260Z,27.70
2022-11-30T07:34:46.969Z,29.03
2022-11-30T07:37:15.003Z,31.70
2022-11-30T07:39:42.731Z,30.63
2022-11-30T07:42:10.893Z,33.50
2022-11-30T07:44:38.633Z,30.93
2022-11-30T07:47:06.408Z,32.37
2022-11-30T07:49:35.618Z,30.37
2022-11-30T07:52:04.513Z,31.53
2022-11-30T07:54:32.278Z,31.20
2022-11-30T07:56:59.943Z,31.37
2022-11-30T07:59:27.767Z,29.77
2022-11-30T08:01:55.598Z,34.03
2022-11-30T08:04:23.530Z,37.37
2022-11-30T08:06:54.316Z,35.53
2022-11-30T08:09:22.763Z,33.47
2022-11-30T08:11:50.974Z,28.93
2022-11-30T08:14:18.712Z,36.13
2022-11-30T08:16:46.510Z,34.23
2022-11-30T08:19:14.426Z,31.10
2022-11-30T08:21:42.180Z,34.70
2022-11-30T08:24:13.579Z,32.30
2022-11-30T08:26:41.322Z,36.60
2022-11-30T08:29:10.963Z,33.97
2022-11-30T08:31:40.514Z,32.30
2022-11-30T08:34:11.050Z,33.97
2022-11-30T08:36:39.451Z,36.23
2022-11-30T08:39:09.001Z,33.80
2022-11-30T08:41:39.114Z,32.10
2022-11-30T08:44:07.520Z,29.07
2022-11-30T08:46:50.833Z,29.77
2022-11-30T08:49:23.172Z,29.77
2022-11-30T08:52:16.340Z,38.43
2022-11-30T08:54:46.265Z,34.27
2022-11-30T08:57:15.665Z,34.97
2022-11-30T08:59:43.389Z,37.07
2022-11-30T09:02:11.568Z,32.00
2022-11-30T09:04:39.668Z,34.27
2022-11-30T09:07:09.473Z,37.77
2022-11-30T09:09:37.617Z,29.50
2022-11-30T09:12:05.729Z,31.57
2022-11-30T09:14:34.882Z,40.20
2022-11-30T09:17:02.594Z,33.07
2022-11-30T09:19:30.497Z,31.30
2022-11-30T09:21:58.217Z,41.67
2022-11-30T09:24:28.267Z,30.00
2022-11-30T09:26:56.492Z,34.40
2022-11-30T09:29:24.338Z,34.03
2022-11-30T09:31:53.474Z,28.30
2022-11-30T09:34:21.329Z,26.10
2022-11-30T09:36:49.105Z,28.13
2022-11-30T09:39:16.867Z,25.67
2022-11-30T09:42:07.299Z,28.17
2022-11-30T09:44:44.447Z,34.57
2022-11-30T09:47:33.742Z,30.40
2022-11-30T09:50:04.114Z,28.73
2022-11-30T09:52:37.569Z,28.57
2022-11-30T09:55:09.929Z,30.00
2022-11-30T09:57:46.871Z,29.37
2022-11-30T10:00:17.817Z,30.13
2022-11-30T10:02:47.136Z,30.90
2022-11-30T10:05:16.802Z,24.23
2022-11-30T10:08:01.853Z,25.23
2022-11-30T10:10:38.787Z,24.97
2022-11-30T10:13:19.387Z,26.37
2022-11-30T10:15:58.759Z,30.87
2022-11-30T10:18:37.989Z,25.37
2022-11-30T10:21:18.914Z,24.87
2022-11-30T10:23:59.661Z,24.77
2022-11-30T10:26:34.456Z,24.87
2022-11-30T10:29:12.698Z,27.13
2022-11-30T10:31:42.722Z,22.93
2022-11-30T10:34:21.307Z,25.33
2022-11-30T10:36:55.093Z,22.40
2022-11-30T10:39:29.529Z,19.97
2022-11-30T10:42:05.171Z,25.40
2022-11-30T10:44:39.912Z,19.90
2022-11-30T10:47:15.265Z,22.20
2022-11-30T10:49:49.419Z,19.57
2022-11-30T10:52:22.586Z,21.33
2022-11-30T10:54:53.243Z,19.70
2022-11-30T10:57:22.992Z,18.17
2022-11-30T10:59:53.802Z,20.00
2022-11-30T11:02:36.771Z,19.43
2022-11-30T11:05:21.826Z,16.73
2022-11-30T11:07:52.929Z,12.70
2022-11-30T11:10:23.031Z,13.97
2022-11-30T11:12:53.570Z,14.33
2022-11-30T11:15:23.738Z,12.93
2022-11-30T11:17:53.036Z,12.70
2022-11-30T11:20:36.639Z,11.97
2022-11-30T11:23:05.469Z,12.23
2022-11-30T11:25:53.061Z,12.23
2022-11-30T11:28:24.412Z,12.50
2022-11-30T11:30:55.649Z,11.37
2022-11-30T11:33:25.128Z,12.37
2022-11-30T11:35:56.370Z,9.47
2022-11-30T11:38:29.572Z,12.33
2022-11-30T11:41:00.320Z,19.57
2022-11-30T11:43:31.008Z,21.00
2022-11-30T11:46:01.949Z,23.13
2022-11-30T11:48:40.258Z,20.40
2022-11-30T11:51:11.096Z,22.37
2022-11-30T11:53:53.779Z,24.97
2022-11-30T11:56:26.903Z,21.17
2022-11-30T11:58:59.685Z,23.47
2022-11-30T12:01:43.842Z,21.37
2022-11-30T12:04:29.614Z,23.63
2022-11-30T12:07:02.423Z,22.87
2022-11-30T12:09:35.013Z,24.03
2022-11-30T12:12:03.021Z,19.43
2022-11-30T12:14:33.408Z,24.00
2022-11-30T12:17:19.217Z,22.33
2022-11-30T12:19:59.020Z,18.37
2022-11-30T12:22:47.913Z,22.87
2022-11-30T12:25:25.405Z,18.20
2022-11-30T12:28:01.977Z,17.93
2022-11-30T12:30:38.255Z,25.53
2022-11-30T12:33:13.373Z,18.40
2022-11-30T12:35:52.421Z,20.70
2022-11-30T12:38:31.395Z,20.10
2022-11-30T12:41:06.718Z,17.17
2022-11-30T12:43:48.974Z,19.13
2022-11-30T12:46:23.850Z,17.70
2022-11-30T12:49:11.160Z,21.80
2022-11-30T12:51:44.953Z,19.53
2022-11-30T12:54:23.941Z,14.97
2022-11-30T12:56:56.871Z,15.57
2022-11-30T12:59:34.130Z,15.30
2022-11-30T13:02:22.124Z,26.30
2022-11-30T13:04:58.433Z,20.53
2022-11-30T13:07:31.353Z,19.10
2022-11-30T13:10:07.488Z,18.63
2022-11-30T13:12:37.491Z,18.70
2022-11-30T13:15:15.716Z,16.63
2022-11-30T13:17:44.871Z,17.07
2022-11-30T13:20:22.089Z,18.30
2022-11-30T13:22:54.491Z,22.17
2022-11-30T13:26:06.948Z,20.57
2022-11-30T13:28:32.421Z,22.57
2022-11-30T13:31:06.942Z,21.40
2022-11-30T13:33:58.137Z,20.63
2022-11-30T13:36:49.713Z,16.73
2022-11-30T13:39:25.475Z,24.17
2022-11-30T13:42:32.079Z,22.00
2022-11-30T13:45:17.044Z,17.50
2022-11-30T13:47:48.821Z,16.23
2022-11-30T13:50:25.977Z,16.67
2022-11-30T13:53:33.888Z,16.47
2022-11-30T13:56:07.979Z,17.80
2022-11-30T13:59:16.944Z,19.67
2022-11-30T14:01:46.059Z,22.00
2022-11-30T14:04:31.704Z,22.23
2022-11-30T14:07:00.735Z,18.10
2022-11-30T14:10:08.120Z,18.00
2022-11-30T14:12:47.422Z,17.67
2022-11-30T14:15:53.771Z,16.87
2022-11-30T14:18:31.301Z,23.13
2022-11-30T14:21:04.068Z,20.53
2022-11-30T14:23:37.213Z,21.27
2022-11-30T14:26:11.046Z,26.13
2022-11-30T14:28:47.931Z,20.40
2022-11-30T14:31:19.606Z,19.23
2022-11-30T14:33:54.323Z,22.20
2022-11-30T14:36:24.243Z,30.73
2022-11-30T14:38:56.211Z,26.87
2022-11-30T14:41:27.096Z,31.03
2022-11-30T14:44:15.866Z,28.60
2022-11-30T14:46:46.672Z,26.17
2022-11-30T14:49:18.290Z,36.43
2022-11-30T14:51:50.466Z,26.10
2022-11-30T14:54:31.865Z,28.70
2022-11-30T14:57:20.430Z,37.53
2022-11-30T14:59:50.846Z,39.33
2022-11-30T15:02:24.446Z,29.73
2022-11-30T15:04:55.645Z,33.20
2022-11-30T15:07:24.962Z,33.17
2022-11-30T15:10:03.504Z,29.17
2022-11-30T15:12:44.709Z,37.90
2022-11-30T15:15:17.290Z,29.47
2022-11-30T15:17:52.935Z,32.53
2022-11-30T15:20:29.927Z,37.20
2022-11-30T15:22:59.336Z,31.30
2022-11-30T15:25:32.759Z,30.13
2022-11-30T15:28:01.303Z,30.23
2022-11-30T15:30:29.477Z,32.80
2022-11-30T15:32:58.644Z,28.50
2022-11-30T15:35:50.288Z,32.70
2022-11-30T15:38:20.934Z,31.40
2022-11-30T15:40:55.189Z,32.30
2022-11-30T15:43:25.725Z,30.27
2022-11-30T15:45:55.711Z,30.30
2022-11-30T15:48:31.495Z,29.50
2022-11-30T15:51:01.912Z,34.50
2022-11-30T15:53:32.158Z,30.57
2022-11-30T15:56:03.097Z,29.87
2022-11-30T15:58:39.512Z,28.67
2022-11-30T16:01:12.827Z,38.47
2022-11-30T16:04:04.908Z,30.87
2022-11-30T16:06:45.863Z,29.70
2022-11-30T16:09:20.138Z,29.57
2022-11-30T16:11:49.351Z,35.33
2022-11-30T16:14:17.705Z,38.10
2022-11-30T16:16:46.583Z,35.20
2022-11-30T16:19:14.404Z,29.87
2022-11-30T16:21:43.534Z,31.07
2022-11-30T16:24:14.988Z,30.90
2022-11-30T16:26:51.138Z,39.90
2022-11-30T16:29:19.310Z,32.57
2022-11-30T17:17:25.219Z,30.30
2022-11-30T17:19:53.567Z,31.50
2022-11-30T17:22:21.332Z,24.17
2022-11-30T17:24:49.361Z,28.27
2022-11-30T17:27:17.273Z,27.33
2022-11-30T17:29:44.965Z,25.30
2022-11-30T17:32:12.731Z,28.17
2022-11-30T17:34:41.954Z,26.87
2022-11-30T17:37:10.387Z,31.40
2022-11-30T17:39:38.075Z,30.70
2022-11-30T17:42:05.931Z,34.03
2022-11-30T17:44:34.035Z,28.80
2022-11-30T17:47:01.748Z,30.30
2022-11-30T17:49:29.564Z,35.00
2022-11-30T17:51:58.657Z,30.13
2022-11-30T17:54:26.318Z,29.50
2022-11-30T17:56:55.809Z,31.73
2022-11-30T17:59:23.625Z,28.83
2022-11-30T18:01:51.807Z,35.00
2022-11-30T18:04:19.706Z,29.30
2022-11-30T18:06:47.459Z,38.80
2022-11-30T18:09:16.842Z,33.40
2022-11-30T18:11:44.722Z,28.70
2022-11-30T18:14:12.449Z,28.93
2022-11-30T18:16:40.416Z,24.50
2022-11-30T18:19:12.316Z,38.10
2022-11-30T18:21:41.327Z,30.00
2022-11-30T18:24:09.333Z,26.83
2022-11-30T18:26:39.023Z,29.00
2022-11-30T18:29:07.558Z,30.80
2022-11-30T18:31:36.225Z,33.60
2022-11-30T18:34:05.985Z,32.80
2022-11-30T18:36:35.080Z,34.87
2022-11-30T18:39:02.857Z,29.07
2022-11-30T18:41:30.578Z,31.07
2022-11-30T18:43:59.853Z,34.97
2022-11-30T18:46:27.902Z,26.53
2022-11-30T18:48:56.320Z,28.13
2022-11-30T18:51:26.172Z,31.60
2022-11-30T18:53:57.633Z,31.63
2022-11-30T18:56:26.977Z,30.63
2022-11-30T18:58:57.614Z,34.20
2022-11-30T19:01:27.240Z,42.00
2022-11-30T19:03:56.500Z,32.37
2022-11-30T19:06:28.187Z,30.50
2022-11-30T19:08:56.083Z,35.50
2022-11-30T19:11:23.962Z,32.07
2022-11-30T19:13:55.962Z,34.20
2022-11-30T19:16:26.761Z,35.87
2022-11-30T19:18:55.424Z,34.13
2022-11-30T19:21:24.303Z,33.83
2022-11-30T19:23:52.134Z,36.47
2022-11-30T19:26:23.585Z,35.10
2022-11-30T19:28:54.946Z,34.97
2022-11-30T19:31:23.564Z,38.07
2022-11-30T19:33:54.939Z,33.23
2022-11-30T19:36:24.752Z,36.60
2022-11-30T19:38:52.525Z,40.30
2022-11-30T19:41:21.425Z,35.33
2022-11-30T19:44:01.094Z,37.47
2022-11-30T19:46:32.019Z,32.97
2022-11-30T19:49:03.176Z,36.13
2022-11-30T19:51:32.160Z,33.40
2022-11-30T19:54:01.996Z,39.43
2022-11-30T19:56:34.510Z,44.57
2022-11-30T19:59:05.511Z,40.13
2022-11-30T20:01:35.323Z,36.83
2022-11-30T20:04:05.345Z,33.60
2022-11-30T20:06:38.197Z,35.53
2022-11-30T20:09:08.457Z,37.30
2022-11-30T20:11:36.845Z,41.07
2022-11-30T20:14:05.287Z,38.43
2022-11-30T20:16:34.014Z,31.87
2022-11-30T20:19:04.083Z,37.00
2022-11-30T20:21:33.922Z,36.97
2022-11-30T20:24:06.657Z,42.10
2022-11-30T20:26:39.664Z,37.33
2022-11-30T20:29:14.367Z,42.07
2022-11-30T20:31:44.172Z,39.70
2022-11-30T20:34:13.499Z,46.53
2022-11-30T20:36:42.110Z,42.43
2022-11-30T20:39:12.120Z,36.70
2022-11-30T20:41:40.271Z,37.83
2022-11-30T20:44:08.024Z,38.03
2022-11-30T20:46:36.904Z,40.87
2022-11-30T20:49:11.994Z,42.30
2022-11-30T20:51:41.457Z,36.87
2022-11-30T20:54:12.415Z,42.63
2022-11-30T20:56:40.608Z,37.23
2022-11-30T20:59:10.352Z,42.43
2022-11-30T21:01:38.354Z,40.43
2022-11-30T21:04:06.172Z,43.37
2022-11-30T21:06:34.416Z,46.40
2022-11-30T21:09:04.335Z,43.73
2022-11-30T21:11:32.301Z,41.97
2022-11-30T21:14:00.203Z,36.00
2022-11-30T21:16:29.694Z,46.27
2022-11-30T21:18:59.480Z,35.17
2022-11-30T21:21:30.339Z,43.50
2022-11-30T21:23:59.914Z,43.33
2022-11-30T21:26:30.808Z,48.90
2022-11-30T21:29:01.972Z,46.80
2022-11-30T21:31:30.757Z,40.30
2022-11-30T21:33:58.759Z,45.93
2022-11-30T21:36:29.864Z,51.20
2022-11-30T21:39:05.097Z,44.97
2022-11-30T21:41:49.858Z,45.50
2022-11-30T21:44:17.690Z,42.70
2022-11-30T21:46:46.631Z,41.07
2022-11-30T21:49:15.496Z,45.93
2022-11-30T21:51:43.881Z,44.40
2022-11-30T21:54:13.379Z,38.97
2022-11-30T21:56:42.555Z,43.07
2022-11-30T21:59:14.346Z,44.50
2022-11-30T22:01:43.775Z,44.90
2022-11-30T22:04:13.391Z,42.57
2022-11-30T22:06:42.503Z,41.90
2022-11-30T22:09:14.230Z,43.93
2022-11-30T22:11:43.258Z,44.93
2022-11-30T22:14:15.494Z,37.67
2022-11-30T22:16:43.346Z,47.27
2022-11-30T22:19:11.229Z,40.87
2022-11-30T22:21:38.969Z,41.77
2022-11-30T22:24:08.948Z,43.60
2022-11-30T22:26:38.676Z,42.70
2022-11-30T22:29:08.214Z,44.60
2022-11-30T22:31:39.216Z,47.93
2022-11-30T22:34:07.946Z,39.53
2022-11-30T22:36:37.494Z,49.30
2022-11-30T22:39:07.115Z,39.67
2022-11-30T22:41:34.943Z,42.13
2022-11-30T22:44:03.115Z,47.40
2022-11-30T22:46:32.884Z,40.00
2022-11-30T22:49:04.198Z,38.83
2022-11-30T22:51:33.950Z,47.10
2022-11-30T22:54:02.505Z,45.47
2022-11-30T22:56:32.245Z,45.07
2022-11-30T22:59:01.347Z,40.07
2022-11-30T23:01:31.217Z,46.30
2022-11-30T23:04:05.776Z,44.00
2022-11-30T23:06:34.771Z,40.20
2022-11-30T23:09:03.489Z,38.83
2022-11-30T23:11:32.884Z,44.67
2022-11-30T23:14:01.323Z,44.57
2022-11-30T23:16:29.198Z,53.60
2022-11-30T23:18:58.146Z,41.67
2022-11-30T23:21:30.267Z,48.33
2022-11-30T23:24:00.937Z,48.20
2022-11-30T23:26:30.963Z,48.50
2022-11-30T23:29:01.795Z,39.93
2022-11-30T23:31:33.808Z,40.57
2022-11-30T23:34:02.662Z,42.57
2022-11-30T23:36:34.498Z,44.17
2022-11-30T23:39:04.092Z,46.00
2022-11-30T23:41:32.135Z,50.30
2022-11-30T23:43:59.941Z,48.47
2022-11-30T23:46:27.750Z,48.77
2022-11-30T23:48:55.944Z,53.50
2022-11-30T23:51:24.681Z,51.43
2022-11-30T23:53:54.117Z,56.20
2022-11-30T23:56:23.551Z,50.70
2022-11-30T23:58:52.042Z,55.10
